sensor_id;sensor_type;location;lat;lon;timestamp;P1;durP1;ratioP1;P2;durP2;ratioP2
62693;SDS011;48759;52.544;13.418;2023-04-25T00:01:19;5.50;;;4.50;;
62693;SDS011;48759;52.544;13.418;2023-04-25T00:03:50;5.70;;;4.37;;
62693;SDS011;48759;52.544;13.418;2023-04-25T00:06:17;4.40;;;3.90;;
62693;SDS011;48759;52.544;13.418;2023-04-25T00:08:43;8.73;;;4.30;;
62693;SDS011;48759;52.544;13.418;2023-04-25T00:11:10;9.03;;;3.90;;
62693;SDS011;48759;52.544;13.418;2023-04-25T00:13:38;5.37;;;3.90;;
62693;SDS011;48759;52.544;13.418;2023-04-25T00:16:06;8.57;;;4.03;;
62693;SDS011;48759;52.544;13.418;2023-04-25T00:18:33;4.07;;;3.20;;
62693;SDS011;48759;52.544;13.418;2023-04-25T00:21:01;7.13;;;3.43;;
62693;SDS011;48759;52.544;13.418;2023-04-25T00:23:31;4.40;;;3.33;;
62693;SDS011;48759;52.544;13.418;2023-04-25T00:25:58;3.40;;;3.13;;
62693;SDS011;48759;52.544;13.418;2023-04-25T00:28:24;5.80;;;3.57;;
62693;SDS011;48759;52.544;13.418;2023-04-25T00:30:52;3.90;;;3.20;;
62693;SDS011;48759;52.544;13.418;2023-04-25T00:33:19;5.80;;;3.50;;
62693;SDS011;48759;52.544;13.418;2023-04-25T00:35:46;11.97;;;3.43;;
62693;SDS011;48759;52.544;13.418;2023-04-25T00:38:12;4.93;;;3.63;;
62693;SDS011;48759;52.544;13.418;2023-04-25T00:40:40;9.03;;;3.57;;
62693;SDS011;48759;52.544;13.418;2023-04-25T00:43:08;9.47;;;3.40;;
62693;SDS011;48759;52.544;13.418;2023-04-25T00:45:35;4.87;;;3.23;;
62693;SDS011;48759;52.544;13.418;2023-04-25T00:48:07;8.13;;;3.20;;
62693;SDS011;48759;52.544;13.418;2023-04-25T00:50:34;7.47;;;3.30;;
62693;SDS011;48759;52.544;13.418;2023-04-25T00:53:02;5.20;;;3.50;;
62693;SDS011;48759;52.544;13.418;2023-04-25T00:55:29;7.50;;;4.40;;
62693;SDS011;48759;52.544;13.418;2023-04-25T00:57:57;5.00;;;3.43;;
62693;SDS011;48759;52.544;13.418;2023-04-25T01:00:24;4.73;;;3.00;;
62693;SDS011;48759;52.544;13.418;2023-04-25T01:02:52;13.73;;;4.03;;
62693;SDS011;48759;52.544;13.418;2023-04-25T01:05:20;6.03;;;3.50;;
62693;SDS011;48759;52.544;13.418;2023-04-25T01:07:47;6.53;;;3.40;;
62693;SDS011;48759;52.544;13.418;2023-04-25T01:10:14;10.97;;;4.27;;
62693;SDS011;48759;52.544;13.418;2023-04-25T01:12:40;8.57;;;4.20;;
62693;SDS011;48759;52.544;13.418;2023-04-25T01:15:08;6.50;;;4.10;;
62693;SDS011;48759;52.544;13.418;2023-04-25T01:17:35;9.03;;;3.90;;
62693;SDS011;48759;52.544;13.418;2023-04-25T01:20:03;8.00;;;3.30;;
62693;SDS011;48759;52.544;13.418;2023-04-25T01:22:32;9.03;;;3.73;;
62693;SDS011;48759;52.544;13.418;2023-04-25T01:24:59;6.80;;;3.27;;
62693;SDS011;48759;52.544;13.418;2023-04-25T01:27:26;7.30;;;4.00;;
62693;SDS011;48759;52.544;13.418;2023-04-25T01:29:53;6.43;;;4.00;;
62693;SDS011;48759;52.544;13.418;2023-04-25T01:32:20;5.87;;;3.97;;
62693;SDS011;48759;52.544;13.418;2023-04-25T01:34:49;8.53;;;3.97;;
62693;SDS011;48759;52.544;13.418;2023-04-25T01:37:16;12.43;;;3.90;;
62693;SDS011;48759;52.544;13.418;2023-04-25T01:39:44;9.47;;;4.33;;
62693;SDS011;48759;52.544;13.418;2023-04-25T01:42:11;8.00;;;4.27;;
62693;SDS011;48759;52.544;13.418;2023-04-25T01:44:39;7.87;;;4.47;;
62693;SDS011;48759;52.544;13.418;2023-04-25T01:47:06;9.20;;;4.60;;
62693;SDS011;48759;52.544;13.418;2023-04-25T01:49:33;8.53;;;4.30;;
62693;SDS011;48759;52.544;13.418;2023-04-25T01:52:00;7.00;;;4.07;;
62693;SDS011;48759;52.544;13.418;2023-04-25T01:54:26;5.83;;;3.50;;
62693;SDS011;48759;52.544;13.418;2023-04-25T01:56:57;4.97;;;4.00;;
62693;SDS011;48759;52.544;13.418;2023-04-25T01:59:23;8.73;;;3.90;;
62693;SDS011;48759;52.544;13.418;2023-04-25T02:01:50;5.27;;;3.60;;
62693;SDS011;48759;52.544;13.418;2023-04-25T02:04:18;8.60;;;4.90;;
62693;SDS011;48759;52.544;13.418;2023-04-25T02:06:44;7.33;;;3.97;;
62693;SDS011;48759;52.544;13.418;2023-04-25T02:09:11;7.70;;;4.23;;
62693;SDS011;48759;52.544;13.418;2023-04-25T02:11:38;8.70;;;4.37;;
62693;SDS011;48759;52.544;13.418;2023-04-25T02:14:06;7.90;;;4.20;;
62693;SDS011;48759;52.544;13.418;2023-04-25T02:16:32;8.13;;;4.40;;
62693;SDS011;48759;52.544;13.418;2023-04-25T02:19:00;4.87;;;3.80;;
62693;SDS011;48759;52.544;13.418;2023-04-25T02:21:27;5.67;;;4.30;;
62693;SDS011;48759;52.544;13.418;2023-04-25T02:23:54;7.70;;;4.23;;
62693;SDS011;48759;52.544;13.418;2023-04-25T02:26:21;6.17;;;4.60;;
62693;SDS011;48759;52.544;13.418;2023-04-25T02:28:48;10.30;;;4.37;;
62693;SDS011;48759;52.544;13.418;2023-04-25T02:31:16;8.33;;;4.53;;
62693;SDS011;48759;52.544;13.418;2023-04-25T02:33:43;5.80;;;4.60;;
62693;SDS011;48759;52.544;13.418;2023-04-25T02:36:10;6.20;;;4.70;;
62693;SDS011;48759;52.544;13.418;2023-04-25T02:38:37;8.20;;;4.57;;
62693;SDS011;48759;52.544;13.418;2023-04-25T02:41:04;12.10;;;5.23;;
62693;SDS011;48759;52.544;13.418;2023-04-25T02:43:31;7.47;;;4.80;;
62693;SDS011;48759;52.544;13.418;2023-04-25T02:45:58;6.70;;;4.97;;
62693;SDS011;48759;52.544;13.418;2023-04-25T02:48:26;12.27;;;5.40;;
62693;SDS011;48759;52.544;13.418;2023-04-25T02:50:53;10.17;;;5.10;;
62693;SDS011;48759;52.544;13.418;2023-04-25T02:53:20;8.10;;;4.50;;
62693;SDS011;48759;52.544;13.418;2023-04-25T02:55:46;6.60;;;4.93;;
62693;SDS011;48759;52.544;13.418;2023-04-25T02:58:13;6.67;;;4.57;;
62693;SDS011;48759;52.544;13.418;2023-04-25T03:00:40;7.33;;;4.97;;
62693;SDS011;48759;52.544;13.418;2023-04-25T03:03:07;10.30;;;6.20;;
62693;SDS011;48759;52.544;13.418;2023-04-25T03:05:35;7.80;;;4.90;;
62693;SDS011;48759;52.544;13.418;2023-04-25T03:08:02;7.40;;;5.47;;
62693;SDS011;48759;52.544;13.418;2023-04-25T03:10:29;8.63;;;5.33;;
62693;SDS011;48759;52.544;13.418;2023-04-25T03:12:55;9.30;;;5.40;;
62693;SDS011;48759;52.544;13.418;2023-04-25T03:15:22;11.40;;;5.87;;
62693;SDS011;48759;52.544;13.418;2023-04-25T03:17:49;6.50;;;4.80;;
62693;SDS011;48759;52.544;13.418;2023-04-25T03:20:15;7.60;;;4.77;;
62693;SDS011;48759;52.544;13.418;2023-04-25T03:22:44;8.47;;;5.23;;
62693;SDS011;48759;52.544;13.418;2023-04-25T03:25:10;9.53;;;4.70;;
62693;SDS011;48759;52.544;13.418;2023-04-25T03:27:37;8.87;;;4.50;;
62693;SDS011;48759;52.544;13.418;2023-04-25T03:30:04;6.40;;;4.93;;
62693;SDS011;48759;52.544;13.418;2023-04-25T03:32:32;8.00;;;5.37;;
62693;SDS011;48759;52.544;13.418;2023-04-25T03:34:59;9.97;;;5.70;;
62693;SDS011;48759;52.544;13.418;2023-04-25T03:37:26;11.50;;;5.33;;
62693;SDS011;48759;52.544;13.418;2023-04-25T03:39:54;12.90;;;5.93;;
62693;SDS011;48759;52.544;13.418;2023-04-25T03:42:21;10.27;;;5.50;;
62693;SDS011;48759;52.544;13.418;2023-04-25T03:44:48;12.50;;;5.83;;
62693;SDS011;48759;52.544;13.418;2023-04-25T03:47:15;11.37;;;6.00;;
62693;SDS011;48759;52.544;13.418;2023-04-25T03:49:41;11.20;;;6.30;;
62693;SDS011;48759;52.544;13.418;2023-04-25T03:52:09;7.20;;;5.20;;
62693;SDS011;48759;52.544;13.418;2023-04-25T03:54:36;8.73;;;4.63;;
62693;SDS011;48759;52.544;13.418;2023-04-25T03:57:04;10.27;;;5.93;;
62693;SDS011;48759;52.544;13.418;2023-04-25T03:59:31;6.43;;;4.87;;
62693;SDS011;48759;52.544;13.418;2023-04-25T04:01:58;14.10;;;5.97;;
62693;SDS011;48759;52.544;13.418;2023-04-25T04:04:27;8.67;;;5.40;;
62693;SDS011;48759;52.544;13.418;2023-04-25T04:06:55;11.63;;;5.73;;
62693;SDS011;48759;52.544;13.418;2023-04-25T04:09:21;12.40;;;6.20;;
62693;SDS011;48759;52.544;13.418;2023-04-25T04:11:48;10.77;;;6.13;;
62693;SDS011;48759;52.544;13.418;2023-04-25T04:14:16;11.03;;;6.50;;
62693;SDS011;48759;52.544;13.418;2023-04-25T04:16:43;12.23;;;5.50;;
62693;SDS011;48759;52.544;13.418;2023-04-25T04:19:09;12.33;;;6.13;;
62693;SDS011;48759;52.544;13.418;2023-04-25T04:21:36;10.83;;;5.20;;
62693;SDS011;48759;52.544;13.418;2023-04-25T04:24:05;12.70;;;6.17;;
62693;SDS011;48759;52.544;13.418;2023-04-25T04:26:32;10.20;;;6.33;;
62693;SDS011;48759;52.544;13.418;2023-04-25T04:29:00;14.83;;;6.20;;
62693;SDS011;48759;52.544;13.418;2023-04-25T04:31:29;9.43;;;5.47;;
62693;SDS011;48759;52.544;13.418;2023-04-25T04:33:56;12.20;;;5.27;;
62693;SDS011;48759;52.544;13.418;2023-04-25T04:36:22;13.60;;;5.93;;
62693;SDS011;48759;52.544;13.418;2023-04-25T04:38:51;15.00;;;5.73;;
62693;SDS011;48759;52.544;13.418;2023-04-25T04:41:17;9.43;;;5.63;;
62693;SDS011;48759;52.544;13.418;2023-04-25T04:43:45;8.07;;;5.67;;
62693;SDS011;48759;52.544;13.418;2023-04-25T04:46:12;8.93;;;4.97;;
62693;SDS011;48759;52.544;13.418;2023-04-25T04:48:40;7.50;;;5.40;;
62693;SDS011;48759;52.544;13.418;2023-04-25T04:51:07;11.30;;;5.87;;
62693;SDS011;48759;52.544;13.418;2023-04-25T04:53:34;15.70;;;7.10;;
62693;SDS011;48759;52.544;13.418;2023-04-25T04:56:01;12.33;;;5.50;;
62693;SDS011;48759;52.544;13.418;2023-04-25T04:58:27;10.33;;;5.50;;
62693;SDS011;48759;52.544;13.418;2023-04-25T05:00:55;15.80;;;5.73;;
62693;SDS011;48759;52.544;13.418;2023-04-25T05:03:22;19.37;;;5.70;;
62693;SDS011;48759;52.544;13.418;2023-04-25T05:05:50;10.67;;;5.90;;
62693;SDS011;48759;52.544;13.418;2023-04-25T05:08:18;10.83;;;5.57;;
62693;SDS011;48759;52.544;13.418;2023-04-25T05:10:45;10.73;;;5.67;;
62693;SDS011;48759;52.544;13.418;2023-04-25T05:13:12;5.47;;;4.40;;
62693;SDS011;48759;52.544;13.418;2023-04-25T05:15:39;9.83;;;5.50;;
62693;SDS011;48759;52.544;13.418;2023-04-25T05:18:09;9.93;;;5.30;;
62693;SDS011;48759;52.544;13.418;2023-04-25T05:20:36;15.97;;;5.53;;
62693;SDS011;48759;52.544;13.418;2023-04-25T05:23:04;8.57;;;5.67;;
62693;SDS011;48759;52.544;13.418;2023-04-25T05:25:31;13.63;;;5.93;;
62693;SDS011;48759;52.544;13.418;2023-04-25T05:27:57;8.63;;;5.17;;
62693;SDS011;48759;52.544;13.418;2023-04-25T05:30:25;6.13;;;5.20;;
62693;SDS011;48759;52.544;13.418;2023-04-25T05:32:51;8.30;;;5.53;;
62693;SDS011;48759;52.544;13.418;2023-04-25T05:35:18;16.00;;;5.70;;
62693;SDS011;48759;52.544;13.418;2023-04-25T05:37:45;12.77;;;5.43;;
62693;SDS011;48759;52.544;13.418;2023-04-25T05:40:14;8.03;;;5.07;;
62693;SDS011;48759;52.544;13.418;2023-04-25T05:42:40;9.40;;;5.87;;
62693;SDS011;48759;52.544;13.418;2023-04-25T05:45:16;8.83;;;5.70;;
62693;SDS011;48759;52.544;13.418;2023-04-25T05:47:43;10.93;;;5.40;;
62693;SDS011;48759;52.544;13.418;2023-04-25T05:50:09;13.57;;;5.40;;
62693;SDS011;48759;52.544;13.418;2023-04-25T05:52:36;10.53;;;6.23;;
62693;SDS011;48759;52.544;13.418;2023-04-25T05:55:04;7.33;;;5.80;;
62693;SDS011;48759;52.544;13.418;2023-04-25T05:57:32;11.57;;;6.33;;
62693;SDS011;48759;52.544;13.418;2023-04-25T05:59:59;15.10;;;8.50;;
62693;SDS011;48759;52.544;13.418;2023-04-25T06:02:26;11.70;;;6.93;;
62693;SDS011;48759;52.544;13.418;2023-04-25T06:04:55;9.57;;;6.00;;
62693;SDS011;48759;52.544;13.418;2023-04-25T06:07:22;11.07;;;6.13;;
62693;SDS011;48759;52.544;13.418;2023-04-25T06:09:48;8.03;;;5.67;;
62693;SDS011;48759;52.544;13.418;2023-04-25T06:12:16;15.27;;;7.17;;
62693;SDS011;48759;52.544;13.418;2023-04-25T06:14:44;10.60;;;6.73;;
62693;SDS011;48759;52.544;13.418;2023-04-25T06:17:10;12.00;;;6.57;;
62693;SDS011;48759;52.544;13.418;2023-04-25T06:19:37;13.83;;;7.23;;
62693;SDS011;48759;52.544;13.418;2023-04-25T06:22:04;12.37;;;7.63;;
62693;SDS011;48759;52.544;13.418;2023-04-25T06:24:32;11.50;;;6.30;;
62693;SDS011;48759;52.544;13.418;2023-04-25T06:26:59;16.37;;;6.00;;
62693;SDS011;48759;52.544;13.418;2023-04-25T06:29:26;12.43;;;5.97;;
62693;SDS011;48759;52.544;13.418;2023-04-25T06:31:54;19.40;;;6.57;;
62693;SDS011;48759;52.544;13.418;2023-04-25T06:34:20;12.93;;;6.37;;
62693;SDS011;48759;52.544;13.418;2023-04-25T06:36:48;17.13;;;6.47;;
62693;SDS011;48759;52.544;13.418;2023-04-25T06:39:14;12.87;;;6.33;;
62693;SDS011;48759;52.544;13.418;2023-04-25T06:41:41;13.60;;;9.27;;
62693;SDS011;48759;52.544;13.418;2023-04-25T06:44:08;8.60;;;7.03;;
62693;SDS011;48759;52.544;13.418;2023-04-25T06:46:34;12.27;;;7.30;;
62693;SDS011;48759;52.544;13.418;2023-04-25T06:49:04;9.40;;;6.03;;
62693;SDS011;48759;52.544;13.418;2023-04-25T06:51:31;8.67;;;5.90;;
62693;SDS011;48759;52.544;13.418;2023-04-25T06:53:58;11.83;;;6.73;;
62693;SDS011;48759;52.544;13.418;2023-04-25T06:56:25;8.90;;;5.70;;
62693;SDS011;48759;52.544;13.418;2023-04-25T06:58:54;11.20;;;6.37;;
62693;SDS011;48759;52.544;13.418;2023-04-25T07:01:21;13.20;;;6.20;;
62693;SDS011;48759;52.544;13.418;2023-04-25T07:03:48;10.47;;;6.13;;
62693;SDS011;48759;52.544;13.418;2023-04-25T07:06:16;8.10;;;5.83;;
62693;SDS011;48759;52.544;13.418;2023-04-25T07:08:43;7.43;;;5.67;;
62693;SDS011;48759;52.544;13.418;2023-04-25T07:11:09;8.90;;;6.30;;
62693;SDS011;48759;52.544;13.418;2023-04-25T07:13:36;14.40;;;6.50;;
62693;SDS011;48759;52.544;13.418;2023-04-25T07:16:03;10.63;;;6.80;;
62693;SDS011;48759;52.544;13.418;2023-04-25T07:18:30;11.40;;;6.43;;
62693;SDS011;48759;52.544;13.418;2023-04-25T07:20:57;15.30;;;6.30;;
62693;SDS011;48759;52.544;13.418;2023-04-25T07:23:25;8.33;;;6.00;;
62693;SDS011;48759;52.544;13.418;2023-04-25T07:25:51;13.83;;;5.60;;
62693;SDS011;48759;52.544;13.418;2023-04-25T07:28:18;11.93;;;6.27;;
62693;SDS011;48759;52.544;13.418;2023-04-25T07:30:45;11.00;;;5.80;;
62693;SDS011;48759;52.544;13.418;2023-04-25T07:33:12;7.43;;;5.07;;
62693;SDS011;48759;52.544;13.418;2023-04-25T07:35:38;11.57;;;5.23;;
62693;SDS011;48759;52.544;13.418;2023-04-25T07:38:05;14.53;;;6.20;;
62693;SDS011;48759;52.544;13.418;2023-04-25T07:40:34;12.60;;;5.10;;
62693;SDS011;48759;52.544;13.418;2023-04-25T07:43:01;13.50;;;5.80;;
62693;SDS011;48759;52.544;13.418;2023-04-25T07:45:27;10.13;;;5.57;;
62693;SDS011;48759;52.544;13.418;2023-04-25T07:47:54;17.83;;;5.70;;
62693;SDS011;48759;52.544;13.418;2023-04-25T07:50:21;11.37;;;5.63;;
62693;SDS011;48759;52.544;13.418;2023-04-25T07:52:47;12.13;;;4.87;;
62693;SDS011;48759;52.544;13.418;2023-04-25T07:55:14;16.27;;;5.60;;
62693;SDS011;48759;52.544;13.418;2023-04-25T07:57:42;9.27;;;4.40;;
62693;SDS011;48759;52.544;13.418;2023-04-25T08:00:09;14.50;;;5.60;;
62693;SDS011;48759;52.544;13.418;2023-04-25T08:02:37;18.90;;;5.30;;
62693;SDS011;48759;52.544;13.418;2023-04-25T08:05:04;10.10;;;5.03;;
62693;SDS011;48759;52.544;13.418;2023-04-25T08:07:33;14.77;;;4.07;;
62693;SDS011;48759;52.544;13.418;2023-04-25T08:10:00;16.27;;;4.30;;
62693;SDS011;48759;52.544;13.418;2023-04-25T08:12:27;12.87;;;4.67;;
62693;SDS011;48759;52.544;13.418;2023-04-25T08:14:55;15.43;;;4.43;;
62693;SDS011;48759;52.544;13.418;2023-04-25T08:17:22;11.70;;;4.93;;
62693;SDS011;48759;52.544;13.418;2023-04-25T08:19:49;17.50;;;5.30;;
62693;SDS011;48759;52.544;13.418;2023-04-25T08:22:15;16.77;;;4.97;;
62693;SDS011;48759;52.544;13.418;2023-04-25T08:24:42;18.50;;;4.60;;
62693;SDS011;48759;52.544;13.418;2023-04-25T08:27:09;17.70;;;5.50;;
62693;SDS011;48759;52.544;13.418;2023-04-25T08:29:36;14.87;;;5.30;;
62693;SDS011;48759;52.544;13.418;2023-04-25T08:32:05;18.87;;;5.20;;
62693;SDS011;48759;52.544;13.418;2023-04-25T08:34:32;16.30;;;4.07;;
62693;SDS011;48759;52.544;13.418;2023-04-25T08:36:59;16.47;;;4.37;;
62693;SDS011;48759;52.544;13.418;2023-04-25T08:39:25;9.30;;;3.90;;
62693;SDS011;48759;52.544;13.418;2023-04-25T08:41:52;19.97;;;5.03;;
62693;SDS011;48759;52.544;13.418;2023-04-25T08:44:19;15.30;;;4.83;;
62693;SDS011;48759;52.544;13.418;2023-04-25T08:46:47;20.33;;;4.67;;
62693;SDS011;48759;52.544;13.418;2023-04-25T08:49:17;15.00;;;4.87;;
62693;SDS011;48759;52.544;13.418;2023-04-25T08:51:45;10.90;;;3.67;;
62693;SDS011;48759;52.544;13.418;2023-04-25T08:54:22;30.93;;;6.40;;
62693;SDS011;48759;52.544;13.418;2023-04-25T08:56:54;17.23;;;4.70;;
62693;SDS011;48759;52.544;13.418;2023-04-25T08:59:25;13.17;;;4.30;;
62693;SDS011;48759;52.544;13.418;2023-04-25T09:01:52;14.00;;;4.20;;
62693;SDS011;48759;52.544;13.418;2023-04-25T09:04:20;15.30;;;3.80;;
62693;SDS011;48759;52.544;13.418;2023-04-25T09:06:47;14.43;;;4.17;;
62693;SDS011;48759;52.544;13.418;2023-04-25T09:09:15;17.93;;;4.80;;
62693;SDS011;48759;52.544;13.418;2023-04-25T09:11:42;18.13;;;4.37;;
62693;SDS011;48759;52.544;13.418;2023-04-25T09:14:12;12.70;;;4.30;;
62693;SDS011;48759;52.544;13.418;2023-04-25T09:17:02;12.43;;;4.17;;
62693;SDS011;48759;52.544;13.418;2023-04-25T09:19:32;13.57;;;4.53;;
62693;SDS011;48759;52.544;13.418;2023-04-25T09:22:00;12.73;;;4.73;;
62693;SDS011;48759;52.544;13.418;2023-04-25T09:24:32;9.23;;;3.13;;
62693;SDS011;48759;52.544;13.418;2023-04-25T09:27:02;20.20;;;4.40;;
62693;SDS011;48759;52.544;13.418;2023-04-25T09:29:30;12.03;;;3.83;;
62693;SDS011;48759;52.544;13.418;2023-04-25T09:32:10;18.50;;;3.77;;
62693;SDS011;48759;52.544;13.418;2023-04-25T09:34:40;11.60;;;3.93;;
62693;SDS011;48759;52.544;13.418;2023-04-25T09:37:13;17.17;;;5.50;;
62693;SDS011;48759;52.544;13.418;2023-04-25T09:39:44;9.50;;;3.20;;
62693;SDS011;48759;52.544;13.418;2023-04-25T09:42:10;14.93;;;3.83;;
62693;SDS011;48759;52.544;13.418;2023-04-25T09:44:37;8.60;;;3.80;;
62693;SDS011;48759;52.544;13.418;2023-04-25T09:47:09;9.43;;;3.87;;
62693;SDS011;48759;52.544;13.418;2023-04-25T09:49:38;10.33;;;3.10;;
62693;SDS011;48759;52.544;13.418;2023-04-25T09:52:08;11.80;;;3.03;;
62693;SDS011;48759;52.544;13.418;2023-04-25T09:54:35;7.37;;;3.20;;
62693;SDS011;48759;52.544;13.418;2023-04-25T09:57:03;14.80;;;3.53;;
62693;SDS011;48759;52.544;13.418;2023-04-25T09:59:36;12.90;;;3.50;;
62693;SDS011;48759;52.544;13.418;2023-04-25T10:02:06;13.77;;;3.70;;
62693;SDS011;48759;52.544;13.418;2023-04-25T10:04:34;18.03;;;3.30;;
62693;SDS011;48759;52.544;13.418;2023-04-25T10:07:03;12.60;;;3.33;;
62693;SDS011;48759;52.544;13.418;2023-04-25T10:09:32;8.83;;;2.77;;
62693;SDS011;48759;52.544;13.418;2023-04-25T10:12:01;8.50;;;2.80;;
62693;SDS011;48759;52.544;13.418;2023-04-25T10:14:29;13.93;;;3.47;;
62693;SDS011;48759;52.544;13.418;2023-04-25T10:16:57;11.03;;;3.90;;
62693;SDS011;48759;52.544;13.418;2023-04-25T10:19:24;10.80;;;3.57;;
62693;SDS011;48759;52.544;13.418;2023-04-25T10:21:52;7.27;;;3.30;;
62693;SDS011;48759;52.544;13.418;2023-04-25T10:24:23;8.60;;;3.93;;
62693;SDS011;48759;52.544;13.418;2023-04-25T10:26:52;7.90;;;2.83;;
62693;SDS011;48759;52.544;13.418;2023-04-25T10:29:21;9.53;;;3.57;;
62693;SDS011;48759;52.544;13.418;2023-04-25T10:31:49;16.87;;;3.10;;
62693;SDS011;48759;52.544;13.418;2023-04-25T10:34:16;8.83;;;3.20;;
62693;SDS011;48759;52.544;13.418;2023-04-25T10:36:46;8.50;;;3.13;;
62693;SDS011;48759;52.544;13.418;2023-04-25T10:39:19;11.90;;;3.33;;
62693;SDS011;48759;52.544;13.418;2023-04-25T10:41:52;6.37;;;3.03;;
62693;SDS011;48759;52.544;13.418;2023-04-25T10:44:19;8.93;;;3.07;;
62693;SDS011;48759;52.544;13.418;2023-04-25T10:46:46;9.87;;;3.30;;
62693;SDS011;48759;52.544;13.418;2023-04-25T10:49:28;11.43;;;3.40;;
62693;SDS011;48759;52.544;13.418;2023-04-25T10:52:10;17.37;;;4.40;;
62693;SDS011;48759;52.544;13.418;2023-04-25T10:54:41;5.30;;;3.20;;
62693;SDS011;48759;52.544;13.418;2023-04-25T11:00:06;9.03;;;3.03;;
62693;SDS011;48759;52.544;13.418;2023-04-25T11:02:40;10.87;;;2.80;;
62693;SDS011;48759;52.544;13.418;2023-04-25T11:05:10;8.60;;;2.93;;
62693;SDS011;48759;52.544;13.418;2023-04-25T11:07:43;6.73;;;3.57;;
62693;SDS011;48759;52.544;13.418;2023-04-25T11:10:15;12.00;;;4.47;;
62693;SDS011;48759;52.544;13.418;2023-04-25T11:12:44;10.53;;;3.47;;
62693;SDS011;48759;52.544;13.418;2023-04-25T11:15:19;9.63;;;2.67;;
62693;SDS011;48759;52.544;13.418;2023-04-25T11:17:46;4.77;;;2.73;;
62693;SDS011;48759;52.544;13.418;2023-04-25T11:20:13;7.13;;;3.10;;
62693;SDS011;48759;52.544;13.418;2023-04-25T11:22:40;9.80;;;3.20;;
62693;SDS011;48759;52.544;13.418;2023-04-25T11:25:08;7.23;;;2.70;;
62693;SDS011;48759;52.544;13.418;2023-04-25T11:27:37;5.57;;;3.33;;
62693;SDS011;48759;52.544;13.418;2023-04-25T11:30:14;8.00;;;3.40;;
62693;SDS011;48759;52.544;13.418;2023-04-25T11:32:41;6.97;;;2.70;;
62693;SDS011;48759;52.544;13.418;2023-04-25T11:35:08;8.03;;;2.70;;
62693;SDS011;48759;52.544;13.418;2023-04-25T11:37:35;7.10;;;2.67;;
62693;SDS011;48759;52.544;13.418;2023-04-25T11:40:02;7.63;;;3.10;;
62693;SDS011;48759;52.544;13.418;2023-04-25T11:42:31;9.10;;;3.63;;
62693;SDS011;48759;52.544;13.418;2023-04-25T11:44:58;12.57;;;3.40;;
62693;SDS011;48759;52.544;13.418;2023-04-25T11:47:29;7.90;;;2.80;;
62693;SDS011;48759;52.544;13.418;2023-04-25T11:49:57;5.90;;;2.77;;
62693;SDS011;48759;52.544;13.418;2023-04-25T11:52:24;12.90;;;2.70;;
62693;SDS011;48759;52.544;13.418;2023-04-25T11:54:51;5.53;;;2.53;;
62693;SDS011;48759;52.544;13.418;2023-04-25T11:57:18;7.53;;;2.83;;
62693;SDS011;48759;52.544;13.418;2023-04-25T11:59:46;3.67;;;2.20;;
62693;SDS011;48759;52.544;13.418;2023-04-25T12:02:23;6.67;;;3.10;;
62693;SDS011;48759;52.544;13.418;2023-04-25T12:04:53;5.30;;;2.50;;
62693;SDS011;48759;52.544;13.418;2023-04-25T12:07:19;8.47;;;3.30;;
62693;SDS011;48759;52.544;13.418;2023-04-25T12:09:51;8.10;;;3.00;;
62693;SDS011;48759;52.544;13.418;2023-04-25T12:12:18;5.70;;;3.03;;
62693;SDS011;48759;52.544;13.418;2023-04-25T12:14:46;10.87;;;4.70;;
62693;SDS011;48759;52.544;13.418;2023-04-25T12:17:13;5.40;;;3.37;;
62693;SDS011;48759;52.544;13.418;2023-04-25T12:19:40;6.80;;;3.50;;
62693;SDS011;48759;52.544;13.418;2023-04-25T12:22:20;5.20;;;2.70;;
62693;SDS011;48759;52.544;13.418;2023-04-25T12:24:48;10.00;;;2.90;;
62693;SDS011;48759;52.544;13.418;2023-04-25T12:27:17;12.53;;;3.40;;
62693;SDS011;48759;52.544;13.418;2023-04-25T12:29:50;7.13;;;3.20;;
62693;SDS011;48759;52.544;13.418;2023-04-25T12:32:17;11.93;;;3.60;;
62693;SDS011;48759;52.544;13.418;2023-04-25T12:34:44;7.20;;;2.90;;
62693;SDS011;48759;52.544;13.418;2023-04-25T12:37:11;5.50;;;2.73;;
62693;SDS011;48759;52.544;13.418;2023-04-25T12:39:40;7.40;;;3.13;;
62693;SDS011;48759;52.544;13.418;2023-04-25T12:42:08;6.93;;;3.17;;
62693;SDS011;48759;52.544;13.418;2023-04-25T12:44:37;8.87;;;3.20;;
62693;SDS011;48759;52.544;13.418;2023-04-25T12:47:04;5.40;;;2.77;;
62693;SDS011;48759;52.544;13.418;2023-04-25T12:49:31;3.23;;;2.60;;
62693;SDS011;48759;52.544;13.418;2023-04-25T12:51:58;9.37;;;3.17;;
62693;SDS011;48759;52.544;13.418;2023-04-25T12:54:25;8.03;;;2.90;;
62693;SDS011;48759;52.544;13.418;2023-04-25T12:56:54;14.00;;;3.00;;
62693;SDS011;48759;52.544;13.418;2023-04-25T12:59:21;10.53;;;2.97;;
62693;SDS011;48759;52.544;13.418;2023-04-25T13:01:50;10.10;;;2.80;;
62693;SDS011;48759;52.544;13.418;2023-04-25T13:04:16;3.20;;;2.20;;
62693;SDS011;48759;52.544;13.418;2023-04-25T13:06:45;9.00;;;2.17;;
62693;SDS011;48759;52.544;13.418;2023-04-25T13:09:12;3.73;;;2.10;;
62693;SDS011;48759;52.544;13.418;2023-04-25T13:11:40;5.67;;;2.37;;
62693;SDS011;48759;52.544;13.418;2023-04-25T13:14:08;8.87;;;2.20;;
62693;SDS011;48759;52.544;13.418;2023-04-25T13:16:35;6.60;;;2.20;;
62693;SDS011;48759;52.544;13.418;2023-04-25T13:19:02;3.77;;;2.40;;
62693;SDS011;48759;52.544;13.418;2023-04-25T13:21:29;8.40;;;3.40;;
62693;SDS011;48759;52.544;13.418;2023-04-25T13:23:58;7.10;;;2.63;;
62693;SDS011;48759;52.544;13.418;2023-04-25T13:26:25;6.60;;;2.53;;
62693;SDS011;48759;52.544;13.418;2023-04-25T13:28:52;7.80;;;2.97;;
62693;SDS011;48759;52.544;13.418;2023-04-25T13:31:21;11.13;;;3.70;;
62693;SDS011;48759;52.544;13.418;2023-04-25T13:33:51;6.63;;;2.73;;
62693;SDS011;48759;52.544;13.418;2023-04-25T13:36:18;5.80;;;3.07;;
62693;SDS011;48759;52.544;13.418;2023-04-25T13:38:45;14.70;;;3.10;;
62693;SDS011;48759;52.544;13.418;2023-04-25T13:41:14;8.27;;;2.50;;
62693;SDS011;48759;52.544;13.418;2023-04-25T13:43:45;6.10;;;2.43;;
62693;SDS011;48759;52.544;13.418;2023-04-25T13:46:13;9.30;;;3.00;;
62693;SDS011;48759;52.544;13.418;2023-04-25T13:48:42;4.73;;;2.67;;
62693;SDS011;48759;52.544;13.418;2023-04-25T13:51:14;7.83;;;2.77;;
62693;SDS011;48759;52.544;13.418;2023-04-25T13:53:42;6.17;;;2.77;;
62693;SDS011;48759;52.544;13.418;2023-04-25T13:56:10;5.23;;;2.63;;
62693;SDS011;48759;52.544;13.418;2023-04-25T13:58:37;6.57;;;2.77;;
62693;SDS011;48759;52.544;13.418;2023-04-25T14:01:04;5.13;;;2.47;;
62693;SDS011;48759;52.544;13.418;2023-04-25T14:03:31;3.30;;;2.27;;
62693;SDS011;48759;52.544;13.418;2023-04-25T14:06:02;4.20;;;3.17;;
62693;SDS011;48759;52.544;13.418;2023-04-25T14:08:30;5.20;;;2.47;;
62693;SDS011;48759;52.544;13.418;2023-04-25T14:10:56;4.80;;;2.57;;
62693;SDS011;48759;52.544;13.418;2023-04-25T14:13:23;7.50;;;2.70;;
62693;SDS011;48759;52.544;13.418;2023-04-25T14:15:50;3.20;;;2.40;;
62693;SDS011;48759;52.544;13.418;2023-04-25T14:18:18;7.13;;;2.73;;
62693;SDS011;48759;52.544;13.418;2023-04-25T14:20:47;10.23;;;3.37;;
62693;SDS011;48759;52.544;13.418;2023-04-25T14:23:19;4.83;;;2.53;;
62693;SDS011;48759;52.544;13.418;2023-04-25T14:25:46;2.90;;;2.20;;
62693;SDS011;48759;52.544;13.418;2023-04-25T14:28:13;5.17;;;2.10;;
62693;SDS011;48759;52.544;13.418;2023-04-25T14:30:40;3.67;;;2.00;;
62693;SDS011;48759;52.544;13.418;2023-04-25T14:33:06;4.23;;;2.10;;
62693;SDS011;48759;52.544;13.418;2023-04-25T14:35:33;6.90;;;2.40;;